Date,TemperatureHighF,TemperatureAvgF,TemperatureLowF,DewpointHighF,DewpointAvgF,DewpointLowF,HumidityHigh,HumidityAvg,HumidityLow,PressureMaxIn,PressureMinIn,WindSpeedMaxMPH,WindSpeedAvgMPH,GustSpeedMaxMPH,PrecipitationSumIn
2013-1-10,40.0,35.2,19.0,37.0,29.7,16.8,96,81,62,29.85,29.25,9,3,18,0.10
2013-1-11,46.0,41.1,37.0,45.5,40.4,36.0,98,97,96,29.25,28.97,7,3,16,0.01
2013-1-12,51.0,33.8,21.0,46.5,26.2,12.8,98,74,64,29.43,28.96,20,9,38,0.00
2013-1-13,20.0,15.4,12.0,12.1,7.5,3.8,78,70,62,29.64,29.35,13,6,22,0.00
2013-1-14,25.0,15.0,8.0,12.3,7.9,3.8,88,74,56,29.83,29.65,11,3,17,0.00
2013-1-15,32.0,20.7,6.0,15.9,11.6,3.2,89,70,47,29.80,29.42,14,5,20,0.00
2013-1-16,35.0,29.1,22.0,32.1,21.0,9.0,92,72,50,29.55,29.15,17,8,24,0.00
2013-1-17,25.0,19.0,12.0,11.8,6.1,-0.7,81,58,43,29.80,29.55,12,4,18,0.00
2013-1-18,47.0,32.0,12.0,33.4,24.0,7.8,89,74,55,29.81,29.19,16,6,27,0.00
2013-1-19,48.0,41.2,37.0,34.8,33.4,32.0,84,75,56,29.25,29.03,14,6,24,0.00
2013-1-21,2.0,-0.9,-5.0,-8.0,-11.6,-13.1,70,60,49,29.70,29.56,18,7,26,0.00
2013-1-22,7.0,-0.0,-6.0,-3.4,-9.1,-12.7,77,65,51,29.75,29.67,11,4,16,0.00
2013-1-23,19.0,10.9,2.0,14.7,4.0,-5.5,83,73,60,29.88,29.47,12,5,26,0.00
2013-1-24,15.0,7.4,-2.0,8.5,-1.7,-7.4,77,66,53,30.07,29.72,11,2,13,0.00
2013-1-25,24.0,19.6,14.0,16.2,13.4,8.1,88,77,64,29.70,29.33,11,5,22,0.00
2013-1-26,26.0,18.2,6.0,14.9,9.0,2.5,85,68,52,29.80,29.64,6,3,13,0.00
2013-1-27,34.0,29.9,25.0,33.2,24.5,15.1,97,81,63,29.71,29.25,7,4,15,0.14
2013-1-28,38.0,35.6,34.0,35.2,33.8,32.2,98,93,86,29.36,29.17,8,2,11,0.07
2013-1-29,48.0,40.6,36.0,47.5,39.8,34.7,98,97,95,29.18,28.92,8,3,15,0.21
2013-1-30,36.0,27.0,14.0,35.0,26.7,14.0,100,99,95,29.85,28.82,16,7,28,0.20
2013-1-31,14.0,8.2,0.0,13.8,5.7,-3.4,99,89,79,30.35,29.86,14,7,24,0.00
2013-2-1,5.0,-0.1,-7.0,2.0,-4.2,-9.4,91,83,73,30.50,30.34,10,3,18,0.00
2013-2-2,15.0,6.4,1.0,5.7,2.3,-2.0,93,84,66,30.33,30.22,7,1,12,0.00
2013-2-3,18.0,11.3,0.0,11.4,6.8,-1.8,95,82,68,30.24,30.16,16,2,22,0.00
2013-2-4,19.0,12.5,5.0,11.8,7.6,2.2,93,81,57,30.22,30.13,0,0,11,0.00
2013-2-5,28.0,17.9,1.0,25.4,15.3,-1.2,100,90,80,30.32,29.98,11,1,19,0.00
2013-2-6,29.0,15.3,-5.0,28.5,13.0,-6.5,98,91,77,30.42,30.26,0,0,10,0.00
2013-2-7,33.0,28.6,22.0,33.0,28.5,22.0,100,100,97,30.35,30.19,9,1,18,0.13
2013-2-8,29.0,19.8,5.0,23.0,16.9,3.2,100,89,70,30.57,30.36,6,0,19,0.00
2013-2-9,28.0,18.8,-1.0,26.5,17.2,-2.3,98,94,90,30.57,30.26,11,0,16,0.00
2013-2-10,47.0,34.1,21.0,47.0,33.7,20.3,100,98,95,30.26,29.60,9,1,26,0.22
2013-2-11,39.0,31.4,26.0,38.2,28.7,21.3,99,90,79,30.19,29.59,14,3,31,0.00
2013-2-12,30.0,24.1,20.0,22.7,19.6,17.5,95,83,72,30.27,30.06,9,1,18,0.00
2013-2-13,40.0,28.5,16.0,30.4,24.8,16.0,100,87,67,30.05,29.88,2,0,8,0.00
2013-2-14,34.0,31.7,23.0,34.0,29.0,16.3,100,90,75,30.25,29.79,20,2,24,0.07
2013-2-15,26.0,17.3,9.0,14.0,9.0,2.7,85,70,53,30.43,30.26,5,0,23,0.00
2013-2-16,17.0,9.5,-2.0,5.4,1.3,-6.9,85,70,51,30.42,30.35,8,0,14,0.00
2013-2-17,25.0,10.3,-10.0,17.9,3.2,-12.8,88,74,55,30.43,30.13,3,0,12,0.00
2013-2-18,45.0,33.4,25.0,35.9,28.1,18.2,98,81,60,30.12,28.92,11,1,24,0.00
2013-2-19,23.0,12.6,6.0,22.5,7.0,-1.7,98,79,62,30.41,29.80,24,6,34,0.00
2013-2-20,26.0,13.9,3.0,12.6,5.7,-2.0,84,70,53,30.61,30.42,8,0,16,0.00
2013-2-21,24.0,16.4,4.0,23.3,13.4,1.0,97,88,82,30.65,30.32,12,2,21,0.00
2013-2-22,31.0,26.1,22.0,31.0,25.9,21.5,100,99,97,30.32,30.04,1,0,21,0.16
2013-2-23,32.0,26.9,24.0,26.0,23.2,20.6,97,86,72,30.17,30.06,0,0,11,0.00
2013-2-24,39.0,27.1,14.0,28.8,22.3,13.5,100,83,61,30.35,30.17,0,0,9,0.00
2013-2-25,38.0,27.8,18.0,29.8,23.9,16.6,96,86,72,30.38,30.28,0,0,5,0.00
2013-2-26,35.0,29.6,24.0,30.9,26.9,22.5,96,90,76,30.29,29.98,23,7,44,0.00
2013-2-27,34.0,31.6,29.0,32.2,30.5,27.5,100,96,88,30.08,29.95,12,2,23,0.00
2013-2-28,34.0,31.2,25.0,31.0,26.4,19.7,96,82,73,30.40,30.09,14,2,21,0.00
2013-3-1,31.0,24.6,16.0,20.6,18.1,10.9,88,76,61,30.50,30.40,13,1,14,0.00
2013-3-2,29.0,17.7,7.0,15.8,9.3,3.7,89,71,45,30.51,30.40,3,0,13,0.00
2013-3-3,31.0,15.8,0.0,16.9,7.8,-2.5,91,72,49,30.42,30.31,0,0,5,0.00
2013-3-4,32.0,21.4,6.0,24.0,16.0,2.0,88,80,69,30.39,30.30,3,0,14,0.00
2013-3-5,30.0,26.4,24.0,28.0,24.7,20.9,100,93,84,30.39,29.41,10,1,20,0.05
2013-3-6,33.0,27.2,19.0,27.5,23.9,17.1,96,88,77,30.56,30.39,6,0,16,0.00
2013-3-7,35.0,22.1,4.0,25.6,17.7,3.3,99,84,63,30.66,30.56,0,0,6,0.00
2013-3-8,39.0,25.9,8.0,29.4,21.2,6.6,95,83,68,30.70,30.50,5,0,18,0.00
2013-3-9,40.0,35.0,29.0,38.0,32.2,26.2,100,90,78,30.49,30.04,10,0,18,0.20
2013-3-10,47.0,39.3,34.0,47.0,39.2,34.0,100,100,93,30.08,29.11,16,2,32,0.14
2013-3-11,37.0,33.6,29.0,37.0,32.9,26.2,100,97,87,30.03,29.84,11,2,21,0.01
2013-3-12,31.0,28.0,24.0,27.0,23.5,17.8,96,83,68,30.30,30.03,11,1,21,0.00
2013-3-13,34.0,25.4,18.0,17.5,14.0,8.6,89,64,38,30.54,29.72,13,2,21,0.00
2013-3-14,35.0,26.5,15.0,28.5,20.8,10.9,94,79,61,30.54,29.49,3,0,8,0.00
2013-3-15,35.0,31.4,27.0,34.2,30.7,26.5,99,97,95,30.29,30.17,0,0,13,0.02
2013-3-16,32.0,24.8,19.0,26.5,20.2,13.7,99,84,65,30.44,29.58,14,1,16,0.00
2013-3-17,29.0,21.2,13.0,18.1,13.2,7.4,81,71,61,30.60,30.34,0,0,15,0.00
2013-3-18,32.0,23.9,16.0,31.8,21.9,12.3,99,92,82,30.33,29.89,17,1,24,0.07
2013-3-19,30.0,20.4,14.0,13.6,10.8,7.9,87,68,41,30.39,29.31,18,4,31,0.00
2013-3-20,21.0,14.4,8.0,7.3,3.6,-1.0,70,62,48,30.46,29.45,15,2,27,0.00
2013-3-21,31.0,18.5,7.0,14.9,8.5,1.3,84,66,46,30.39,30.31,10,1,14,0.00
2013-3-22,39.0,23.5,7.0,19.9,13.6,3.7,87,68,43,30.39,30.30,0,0,5,0.00
2013-3-23,41.0,26.7,14.0,25.0,19.0,12.1,94,74,40,30.45,29.52,5,0,10,0.00
2013-3-24,33.0,30.5,28.0,29.1,25.3,22.4,92,81,73,30.40,30.16,14,2,24,0.00
2013-3-25,37.0,30.9,21.0,26.8,23.6,17.7,89,74,64,30.43,29.41,14,2,21,0.00
2013-3-26,41.0,35.0,30.0,29.7,24.9,23.0,77,67,54,30.55,29.56,9,0,18,0.00
2013-3-27,45.0,36.4,27.0,27.8,23.5,20.0,81,61,40,30.60,29.69,5,0,14,0.00
2013-3-28,48.0,34.9,21.0,28.5,22.1,18.0,89,63,36,30.64,30.54,0,0,4,0.00
2013-3-29,50.0,35.8,21.0,30.1,24.0,18.8,93,65,39,30.63,29.63,1,0,9,0.00
2013-3-30,53.0,42.2,30.0,43.4,34.4,24.6,98,75,56,30.51,30.15,11,0,24,0.00
2013-3-31,46.0,38.8,33.0,40.7,33.5,19.1,100,83,52,30.25,30.05,7,1,23,0.00
2013-4-1,36.0,29.7,24.0,19.3,15.1,12.1,70,55,39,30.50,29.52,16,2,29,0.00
2013-4-2,40.0,30.9,23.0,17.7,15.1,11.6,73,53,34,30.64,29.71,10,1,22,0.00
2013-4-3,46.0,33.8,19.0,22.5,17.6,8.5,85,54,23,30.77,29.74,6,0,14,0.00
2013-4-4,57.0,43.6,33.0,37.2,28.5,21.6,68,56,42,30.55,30.26,15,1,24,0.00
2013-4-5,45.0,37.4,28.0,28.2,25.5,22.3,87,63,43,30.56,30.39,0,0,14,0.00
2013-4-6,59.0,44.5,31.0,50.1,38.1,28.4,95,79,54,30.46,28.96,18,2,29,0.04
2013-4-7,51.0,42.4,37.0,41.0,36.0,33.8,91,79,60,30.27,29.93,12,2,34,0.00
2013-4-8,47.0,40.8,37.0,44.8,38.4,33.2,100,91,86,30.34,30.02,10,0,18,0.09
2013-4-9,41.0,38.3,33.0,41.0,38.0,31.7,100,99,95,30.43,29.37,15,3,24,0.11
2013-4-10,36.0,33.6,32.0,36.0,33.4,31.2,100,99,91,30.50,30.29,15,2,27,0.01
2013-4-11,37.0,35.4,34.0,37.0,34.5,31.5,100,97,87,30.28,29.97,19,5,43,0.00
2013-4-12,41.0,36.4,34.0,41.0,36.2,33.0,100,99,87,30.12,29.09,5,0,15,0.01
2013-4-13,38.0,34.7,31.0,33.2,29.7,26.9,99,82,66,30.32,29.19,11,1,22,0.00
2013-4-14,43.0,35.8,29.0,41.1,33.4,25.6,95,91,83,30.34,29.94,12,0,26,0.00
2013-4-15,58.0,47.2,40.0,55.0,38.6,28.9,100,75,38,30.27,29.06,21,2,34,0.05
2013-4-16,52.0,41.3,33.0,33.9,31.7,28.7,86,70,41,30.60,29.64,9,0,18,0.00
2013-4-17,42.0,39.1,36.0,40.5,35.7,31.0,98,88,77,30.63,30.23,13,1,24,0.00
2013-4-18,53.0,43.8,41.0,53.0,43.6,39.4,100,99,93,30.19,29.65,13,2,34,0.00
2013-4-19,39.0,34.9,30.0,37.7,29.6,22.0,97,81,61,30.24,29.67,24,7,34,0.00
2013-4-20,46.0,34.8,25.0,22.5,18.5,13.7,84,55,29,30.66,30.25,13,1,21,0.00
2013-4-21,51.0,40.8,33.0,37.9,31.7,23.8,97,71,50,30.76,30.51,16,4,23,0.00
2013-4-22,66.0,53.9,46.0,44.0,40.1,36.6,73,60,41,30.51,30.27,14,3,21,0.00
2013-4-23,54.0,43.0,37.0,47.0,36.3,29.2,95,78,63,30.32,29.44,15,3,23,0.00
2013-4-24,54.0,42.9,31.0,36.3,28.2,22.9,87,59,35,30.34,30.25,11,1,29,0.00
2013-4-25,50.0,43.2,36.0,38.4,33.6,29.6,97,71,46,30.57,30.26,14,0,24,0.00
2013-4-26,69.0,55.9,37.0,49.7,39.7,29.6,80,56,40,30.56,30.36,19,2,26,0.00
2013-4-27,66.0,58.8,50.0,51.8,48.7,46.6,90,70,52,30.48,30.29,9,0,18,0.00
2013-4-28,73.0,59.5,43.0,50.9,45.9,42.2,98,66,38,30.30,30.03,1,0,7,0.00
2013-4-29,71.0,61.8,55.0,57.7,53.9,47.6,84,76,54,30.11,29.97,9,1,23,0.00
2013-4-30,86.0,73.2,61.0,62.3,56.8,50.6,97,61,34,30.14,29.93,19,4,33,0.05
2013-5-1,79.0,63.1,49.0,54.6,48.9,41.4,82,61,43,30.52,30.17,18,4,24,0.00
2013-5-2,49.0,43.3,36.0,41.1,37.4,33.9,98,80,65,30.62,29.70,18,6,29,0.01
2013-5-3,47.0,39.9,34.0,47.0,39.7,34.0,100,99,93,30.59,29.47,13,2,18,0.03
2013-5-4,70.0,55.9,45.0,57.0,50.2,45.0,100,84,52,30.36,30.28,1,0,18,0.00
2013-5-5,74.0,59.8,47.0,52.1,48.6,44.2,93,70,43,30.38,30.25,0,0,13,0.00
2013-5-6,76.0,60.8,47.0,50.6,47.3,38.5,96,66,26,30.38,29.49,7,0,14,0.00
2013-5-7,78.0,64.5,47.0,52.0,45.5,40.4,95,57,27,30.34,30.18,0,0,12,0.00
2013-5-8,82.0,67.0,49.0,53.2,48.7,44.8,94,57,28,30.28,30.16,0,0,8,0.00
2013-5-9,66.0,58.8,45.0,57.4,53.0,45.0,100,82,60,30.23,29.42,14,1,25,0.02
2013-5-10,56.0,47.0,42.0,50.1,45.0,42.0,100,93,74,30.33,30.23,13,1,26,0.01
2013-5-11,52.0,47.4,41.0,51.0,37.7,26.5,100,72,37,30.38,30.13,31,6,36,0.00
2013-5-12,54.0,44.2,36.0,31.0,26.7,24.4,70,52,32,30.47,30.37,18,3,25,0.00
2013-5-13,63.0,49.5,32.0,40.8,32.5,28.0,95,57,28,30.48,30.11,10,0,16,0.00
2013-5-14,85.0,70.2,50.0,60.9,50.8,38.3,75,52,32,30.10,29.74,9,0,27,0.00
2013-5-15,78.0,70.2,60.0,60.5,46.1,41.2,67,43,31,30.07,29.78,15,2,23,0.00
2013-5-16,83.0,66.3,52.0,54.1,49.0,37.6,92,57,33,30.19,30.06,14,1,23,0.00
2013-5-17,59.0,54.1,49.0,55.4,47.4,37.8,98,80,47,30.33,30.18,0,0,15,0.00
2013-5-18,78.0,64.5,52.0,66.1,58.7,50.7,97,83,63,30.31,30.12,0,0,12,0.00
2013-5-19,85.0,72.3,61.0,67.1,62.9,59.0,95,74,52,30.14,29.86,14,1,23,0.00
2013-5-20,81.0,73.7,64.0,71.8,63.1,57.6,100,72,47,30.01,29.15,16,3,39,0.01
2013-5-21,75.0,69.7,62.0,65.9,60.1,56.1,90,72,57,29.88,29.80,10,1,24,0.00
2013-5-22,65.0,60.8,56.0,62.3,59.5,56.0,100,96,84,30.03,29.84,10,0,19,0.00
2013-5-23,65.0,56.1,48.0,61.0,45.1,29.3,100,72,28,30.50,29.61,14,2,24,0.00
2013-5-24,65.0,52.1,38.0,45.6,39.9,36.2,93,66,41,30.67,30.49,1,0,11,0.00
2013-5-25,65.0,55.5,48.0,44.4,40.4,36.5,78,58,44,30.60,30.47,8,0,16,0.00
2013-5-26,65.0,56.0,45.0,48.4,42.9,38.5,80,63,45,30.53,29.62,1,0,14,0.00
2013-5-27,56.0,54.0,51.0,54.3,48.6,41.2,100,83,61,30.37,30.16,16,1,22,0.00
2013-5-28,86.0,60.3,52.0,86.0,60.2,52.0,100,100,98,30.16,29.94,3,0,14,0.00
2013-5-29,85.0,70.7,61.0,69.8,64.5,60.3,100,83,45,30.10,29.29,17,1,39,0.00
2013-5-30,84.0,75.3,66.0,84.0,70.1,62.0,100,85,61,30.06,29.89,20,2,32,0.00
2013-5-31,78.0,70.4,65.0,66.2,63.4,61.3,91,79,60,29.95,29.18,10,2,23,0.00
2013-6-1,78.0,68.6,59.0,67.0,60.2,54.0,97,76,47,29.89,29.80,11,0,26,0.00
2013-6-2,64.0,54.6,47.0,58.0,44.9,40.8,91,71,50,30.22,29.89,8,0,24,0.00
2013-6-3,74.0,60.7,42.0,51.8,43.2,37.9,98,59,28,30.30,29.45,8,2,13,0.00
2013-6-4,59.0,56.9,53.0,56.4,53.1,50.1,93,87,75,29.63,29.52,9,2,15,0.16
2013-6-5,61.0,56.6,54.0,58.3,53.7,51.8,95,90,83,29.58,29.42,7,3,13,0.26
2013-6-6,60.0,56.5,54.0,56.4,53.7,51.8,96,91,86,29.44,29.39,10,3,11,0.22
2013-6-7,71.0,61.2,52.0,55.1,51.5,48.2,90,72,49,29.45,29.38,5,1,10,0.00
2013-6-8,71.0,62.1,55.0,59.7,55.0,51.5,94,79,51,29.46,29.38,6,1,10,0.05
2013-6-9,79.0,67.6,57.0,62.7,57.0,52.5,90,71,48,29.45,29.27,13,3,19,0.00
2013-6-10,83.0,72.8,62.0,63.8,61.5,59.0,91,70,48,29.34,29.24,6,2,10,0.00
2013-6-11,83.0,73.5,62.0,67.3,63.9,59.6,92,74,53,29.38,29.30,8,2,11,0.00
2013-6-12,78.0,70.1,66.0,76.4,67.7,65.2,100,93,71,30.00,29.28,8,1,26,0.04
2013-6-13,78.0,70.1,63.0,70.0,61.9,55.7,100,78,51,30.23,29.96,0,0,12,0.00
2013-6-14,77.0,67.0,55.0,59.5,56.4,53.0,94,71,52,30.34,30.15,0,0,9,0.00
2013-6-15,80.0,70.6,58.0,72.4,65.8,52.8,100,86,67,30.22,29.42,11,0,14,0.00
2013-6-16,87.0,76.8,67.0,87.0,64.8,54.0,100,71,37,30.07,30.01,0,0,11,0.00
2013-6-17,85.0,71.3,60.0,62.7,58.8,54.8,91,68,37,30.16,30.03,0,0,16,0.00
2013-6-18,73.0,62.5,52.0,58.6,52.7,47.2,95,73,46,30.30,30.16,0,0,9,0.00
2013-6-19,78.0,65.3,49.0,56.9,52.4,47.2,96,66,43,30.34,30.20,0,0,7,0.00
2013-6-20,88.0,73.3,58.0,65.1,57.4,51.2,78,60,32,30.35,29.57,11,0,15,0.00
2013-6-21,79.0,72.9,66.0,74.7,66.9,60.3,100,82,68,30.23,30.04,0,0,27,0.00
2013-6-22,80.0,73.5,69.0,75.1,70.8,67.2,100,92,74,30.24,30.01,0,0,14,0.00
2013-6-23,85.0,77.1,70.0,74.4,71.7,68.2,100,84,66,30.13,29.93,4,0,14,0.00
2013-6-24,83.0,75.1,70.0,70.2,68.6,66.6,93,81,58,30.20,29.36,12,1,17,0.00
2013-6-25,82.0,75.0,68.0,76.0,72.4,66.5,100,92,76,30.09,29.97,0,0,7,0.00
2013-6-26,84.0,76.0,71.0,75.0,71.4,69.2,100,87,63,29.96,29.83,0,0,5,0.00
2013-6-27,88.0,78.5,69.0,75.5,68.7,58.5,98,74,48,29.95,29.23,6,0,11,0.00
2013-6-28,74.0,69.2,64.0,67.9,63.7,58.7,99,83,66,29.91,29.80,0,0,10,0.00
2013-6-29,71.0,65.6,63.0,65.4,63.0,59.7,100,92,76,29.99,29.80,1,0,11,0.00
2013-6-30,79.0,67.9,57.0,58.8,54.7,50.3,91,65,38,30.16,30.00,0,0,13,0.00
2013-7-1,82.0,69.0,56.0,60.0,56.2,53.8,96,67,41,30.36,30.17,1,0,9,0.00
2013-7-2,78.0,67.2,58.0,61.5,53.2,46.7,90,64,38,30.28,29.61,6,0,11,0.00
2013-7-3,74.0,65.4,58.0,63.6,58.3,51.8,89,78,67,30.25,30.13,0,0,0,0.00
2013-7-4,83.0,72.7,62.0,64.2,61.5,59.1,98,71,45,30.19,30.08,0,0,8,0.00
2013-7-5,85.0,75.0,63.0,67.1,63.4,60.9,97,70,46,30.18,30.08,2,0,12,0.00
2013-7-6,87.0,75.9,64.0,68.3,65.4,60.7,92,71,47,30.12,29.99,0,0,6,0.00
2013-7-7,89.0,78.8,69.0,73.5,70.3,64.6,93,76,56,30.02,29.93,2,0,7,0.00
2013-7-8,89.0,80.0,72.0,83.0,75.1,70.2,100,86,67,30.10,29.92,0,0,13,0.04
2013-7-9,84.0,76.0,71.0,76.3,73.1,70.7,100,91,72,30.11,29.95,5,0,18,0.00
2013-7-10,79.0,72.6,63.0,71.8,62.3,56.3,92,72,51,30.12,29.96,0,0,14,0.00
2013-7-11,85.0,70.0,56.0,63.9,59.4,55.4,100,73,41,30.26,30.12,0,0,4,0.00
2013-7-12,83.0,71.3,58.0,61.9,58.2,55.4,94,66,43,30.27,30.14,1,0,8,0.00
2013-7-13,84.0,73.2,63.0,65.5,61.9,57.4,84,69,51,30.23,30.14,0,0,9,0.00
2013-7-14,88.0,75.7,60.0,70.8,65.9,58.3,96,74,48,30.26,30.19,0,0,8,0.00
2013-7-15,93.0,79.9,68.0,75.1,71.4,66.8,98,77,53,30.43,30.24,0,0,6,0.00
2013-7-16,93.0,83.7,75.0,77.1,75.0,72.5,98,77,55,30.38,30.27,0,0,9,0.00
2013-7-17,96.0,82.9,76.0,80.0,76.1,73.2,96,82,53,30.37,30.20,0,0,28,0.03
2013-7-18,93.0,84.2,75.0,76.9,74.5,71.8,96,75,52,30.24,29.91,1,0,19,0.00
2013-7-19,93.0,83.1,71.0,75.2,69.6,61.5,78,65,39,29.92,29.84,3,0,15,0.00
2013-7-20,84.0,73.6,64.0,66.2,62.8,58.0,91,70,53,29.99,29.90,0,0,11,0.00
2013-7-21,73.0,66.3,59.0,73.0,63.1,57.0,100,90,67,30.02,29.92,0,0,22,0.03
2013-7-22,84.0,75.6,65.0,76.0,70.3,65.0,100,85,62,29.98,29.68,0,0,16,0.00
2013-7-23,74.0,68.2,60.0,70.8,58.5,53.1,99,73,49,30.10,29.45,3,0,16,0.00
2013-7-24,77.0,65.0,54.0,59.1,54.5,50.2,96,71,47,30.18,30.07,0,0,5,0.00
2013-7-25,78.0,68.0,56.0,67.2,61.2,53.7,95,80,63,30.13,30.01,0,0,12,0.00
2013-7-26,76.0,67.6,59.0,69.5,62.1,52.8,100,84,58,30.03,29.92,1,0,14,0.00
2013-7-27,62.0,54.5,48.0,52.2,49.1,45.5,95,83,66,30.04,29.93,0,0,16,0.00
2013-7-28,68.0,58.6,51.0,56.3,53.1,50.2,100,83,64,30.06,29.93,1,0,17,0.00
2013-7-29,76.0,62.7,52.0,61.1,55.7,50.3,94,79,57,30.26,29.57,4,0,11,0.00
2013-7-30,76.0,66.7,57.0,64.8,60.9,56.4,100,83,61,30.23,30.14,1,0,8,0.00
2013-7-31,82.0,68.9,62.0,69.0,63.6,59.8,100,84,61,30.15,30.00,0,0,20,0.00
2013-8-1,80.0,68.7,58.0,61.8,58.3,54.9,100,73,43,30.06,29.92,0,0,10,0.00
2013-8-2,81.0,72.1,63.0,77.0,63.0,55.3,100,76,49,30.01,29.87,0,0,30,0.01
2013-8-3,77.0,66.2,54.0,63.4,55.0,51.6,98,70,42,30.15,30.02,0,0,9,0.00
2013-8-4,78.0,65.6,53.0,61.0,55.7,51.6,95,73,47,30.26,30.10,0,0,3,0.00
2013-8-5,73.0,64.9,58.0,65.1,60.9,56.0,97,88,71,30.10,29.88,5,0,8,0.00
2013-8-6,84.0,73.7,66.0,71.9,67.7,65.1,100,83,55,29.94,29.79,0,0,16,0.00
2013-8-7,77.0,70.3,63.0,75.0,65.9,58.7,100,87,61,29.97,29.79,0,0,32,0.00
2013-8-8,80.0,67.8,55.0,63.9,59.0,52.7,96,75,51,30.11,29.93,0,0,0,0.00
2013-8-9,82.0,70.1,60.0,64.9,59.4,54.0,92,71,48,30.01,29.91,0,0,1,0.00
2013-8-10,77.0,65.6,55.0,61.3,57.4,54.2,98,77,51,30.12,30.02,0,0,0,0.00
2013-8-11,71.0,62.3,57.0,71.0,62.1,55.9,100,99,95,30.12,30.02,0,0,0,0.00
2013-8-12,81.0,70.1,62.0,75.5,63.8,58.9,100,83,53,30.06,29.95,0,0,1,0.00
2013-8-13,71.0,61.8,51.0,60.4,52.0,48.2,92,72,50,30.22,30.02,0,0,16,0.00
2013-8-14,77.0,61.6,47.0,58.2,52.5,46.5,99,75,45,30.29,30.13,0,0,0,0.00
2013-8-15,81.0,66.6,58.0,62.0,58.0,55.1,98,77,44,30.18,30.09,0,0,0,0.00
2013-8-16,85.0,68.6,56.0,67.8,58.5,54.9,100,75,38,30.23,30.13,0,0,0,0.00
2013-8-17,82.0,68.8,56.0,66.2,59.0,55.4,100,75,45,30.26,30.13,0,0,0,0.00
2013-8-18,82.0,68.9,55.0,64.6,58.3,54.2,99,72,45,30.22,30.05,0,0,0,0.00
2013-8-19,82.0,70.7,58.0,64.9,61.8,57.4,99,76,49,30.17,30.02,0,0,1,0.00
2013-8-20,86.0,74.8,62.0,68.6,65.5,60.7,99,75,53,30.09,30.02,0,0,14,0.00
2013-8-21,89.0,78.8,70.0,73.8,69.9,65.9,95,75,58,30.05,29.93,0,0,11,0.01
2013-8-22,85.0,72.1,65.0,71.5,66.3,59.7,100,84,52,30.17,30.00,0,0,3,0.00
2013-8-23,85.0,70.0,56.0,63.4,59.7,53.4,93,72,47,30.24,30.13,0,0,0,0.00
2013-8-24,84.0,72.1,57.0,70.4,63.0,55.1,96,75,50,30.25,30.11,0,0,0,0.00
2013-8-25,90.0,80.6,72.0,73.7,70.3,67.6,88,72,58,30.14,30.00,0,0,11,0.00
2013-8-26,91.0,81.5,74.0,77.1,71.8,67.0,85,73,59,30.18,29.93,0,0,1,0.00
2013-8-27,95.0,84.0,74.0,77.3,74.2,71.2,94,74,54,29.99,29.86,0,0,3,0.00
2013-8-28,85.0,77.2,72.0,75.8,72.6,68.2,100,87,65,30.10,29.93,0,0,0,0.00
2013-8-29,91.0,81.0,66.0,75.1,67.7,62.1,100,67,39,30.17,29.49,9,2,17,0.00
2013-8-30,92.0,80.9,69.0,78.5,71.4,63.3,96,74,53,30.00,29.34,7,3,15,0.00
2013-8-31,83.0,72.9,63.0,68.8,65.2,61.0,97,79,53,29.94,29.32,6,1,11,0.00
2013-9-1,87.0,74.9,65.0,73.4,64.2,57.2,100,72,38,29.86,29.25,13,3,23,0.00
2013-9-2,72.0,64.7,55.0,62.1,56.1,51.2,95,75,49,30.16,29.38,12,2,15,0.00
2013-9-3,78.0,62.6,47.0,56.7,51.6,47.0,100,72,37,30.17,29.53,9,2,14,0.00
2013-9-4,87.0,70.0,53.0,65.9,60.2,52.2,100,75,42,30.19,29.54,8,2,13,0.00
2013-9-5,79.0,67.7,56.0,64.9,57.4,48.8,97,73,42,30.35,29.67,7,2,13,0.00
2013-9-6,89.0,71.9,51.0,67.2,58.9,47.6,94,66,43,30.29,29.47,14,2,17,0.00
2013-9-7,94.0,78.9,69.0,73.3,66.9,63.0,92,68,44,30.03,29.40,9,2,19,0.00
2013-9-8,72.0,67.1,60.0,67.9,62.3,57.4,93,85,77,30.11,29.55,14,2,19,0.01
2013-9-9,92.0,79.7,63.0,78.0,69.9,60.7,100,75,49,30.01,29.27,14,3,18,0.01
2013-9-10,95.0,85.5,75.0,70.1,66.3,62.9,74,54,35,30.04,29.30,13,3,23,0.00
2013-9-11,84.0,76.7,68.0,67.9,63.7,57.7,93,66,41,30.13,29.51,12,3,16,0.00
2013-9-12,74.0,66.0,55.0,60.7,53.3,45.0,97,66,39,30.20,29.49,10,2,21,0.00
2013-9-13,69.0,56.0,44.0,48.6,42.6,36.1,96,65,31,30.33,29.64,8,1,13,0.00
2013-9-14,73.0,58.4,40.0,51.9,45.7,39.5,100,67,37,30.23,29.48,11,2,17,0.00
2013-9-15,67.0,60.0,55.0,64.0,56.7,50.5,100,89,66,30.30,29.46,11,2,15,0.17
2013-9-16,65.0,54.0,41.0,49.2,44.1,39.1,97,72,44,30.52,29.77,8,2,13,0.01
2013-9-17,70.0,56.2,38.0,59.6,49.9,37.2,100,81,54,30.40,29.57,6,1,14,0.00
2013-9-18,81.0,68.9,59.0,69.5,63.6,57.0,99,85,58,30.12,29.37,10,3,18,0.02
2013-9-19,84.0,74.0,70.0,78.0,71.2,67.2,100,91,70,29.90,29.23,14,2,39,0.01
2013-9-20,76.0,67.1,56.0,76.0,63.5,54.2,100,89,65,29.89,29.23,14,4,20,0.00
2013-9-21,62.0,54.6,47.0,54.1,48.4,44.6,98,81,57,30.02,29.34,10,2,20,0.00
2013-9-22,65.0,51.5,39.0,49.9,44.1,39.0,100,79,46,30.15,29.46,7,1,10,0.00
2013-9-23,69.0,55.2,41.0,54.3,48.7,40.0,100,81,53,30.20,29.52,8,1,14,0.00
2013-9-24,74.0,58.0,43.0,60.4,50.4,42.7,100,79,44,30.11,29.45,9,1,14,0.00
2013-9-25,72.0,57.9,45.0,62.0,52.2,44.2,100,84,52,30.11,29.45,6,1,12,0.00
2013-9-26,78.0,61.3,44.0,67.1,53.0,43.5,100,78,42,30.13,29.49,10,1,16,0.00
2013-9-27,83.0,65.3,46.0,60.7,52.6,46.0,100,69,31,30.20,29.51,8,2,18,0.00
2013-9-28,81.0,65.4,55.0,68.2,56.8,49.1,100,76,48,30.04,29.29,14,3,29,0.00
2013-9-29,72.0,58.8,48.0,62.0,49.7,43.3,100,77,37,30.10,29.45,9,2,13,0.00
2013-9-30,74.0,60.6,45.0,51.3,47.9,43.7,97,66,35,30.02,29.28,17,2,23,0.00
2013-10-1,81.0,68.7,53.0,62.5,56.1,48.0,96,66,41,29.96,29.27,15,5,24,0.00
2013-10-2,78.0,62.2,44.0,52.5,45.8,34.6,100,61,23,30.16,29.46,6,1,12,0.00
2013-10-3,73.0,62.6,55.0,66.9,56.8,42.8,98,83,54,29.96,29.33,8,2,16,0.00
2013-10-4,62.0,59.8,57.0,61.0,58.8,57.0,100,96,90,30.07,29.38,10,2,17,0.00
2013-10-5,79.0,66.3,60.0,79.0,62.9,57.7,100,89,68,29.99,29.22,8,2,24,0.34
2013-10-6,62.0,54.1,45.0,60.0,46.0,39.8,100,76,48,29.82,29.15,10,2,18,0.00
2013-10-7,67.0,55.4,45.0,53.2,46.4,42.2,99,75,41,30.13,29.18,13,3,21,0.00
2013-10-8,77.0,58.5,38.0,53.5,45.8,37.3,100,67,33,30.20,29.54,11,2,22,0.00
2013-10-9,74.0,60.8,48.0,53.9,49.3,45.6,96,69,40,30.26,29.59,13,2,17,0.00
2013-10-10,75.0,57.3,40.0,58.0,48.7,39.8,100,77,37,30.22,29.55,11,1,17,0.00
2013-10-11,74.0,60.6,47.0,63.0,54.2,46.5,100,81,57,30.13,29.93,10,0,23,0.00
2013-10-12,70.0,62.1,47.0,61.3,51.6,40.0,90,70,46,30.20,29.92,7,0,19,0.00
2013-10-13,61.0,48.6,38.0,47.1,39.8,36.7,100,74,45,30.47,30.21,0,0,11,0.00
2013-10-14,61.0,46.5,32.0,48.0,40.5,31.8,100,82,58,30.53,30.21,1,0,11,0.00
2013-10-15,62.0,53.2,45.0,62.0,51.5,41.9,100,94,83,30.20,29.81,0,0,11,0.03
2013-10-16,55.0,51.4,47.0,55.0,49.1,44.5,100,92,77,30.02,29.24,8,2,11,0.01
2013-10-17,57.0,47.9,39.0,47.5,41.7,37.5,100,81,48,30.01,29.24,10,2,15,0.00
2013-10-18,49.0,45.0,39.0,47.3,42.0,36.6,100,90,72,30.04,29.22,13,2,23,0.01
2013-10-19,54.0,42.3,32.0,43.2,38.1,32.0,100,87,43,30.02,29.12,14,2,25,0.14
2013-10-20,51.0,43.1,34.0,48.8,41.7,34.0,100,95,81,29.99,29.10,12,2,33,0.01
2013-10-21,48.0,39.4,32.0,46.0,30.9,22.8,100,72,52,30.03,29.16,24,6,33,0.00
2013-10-22,47.0,38.0,26.0,35.1,28.7,24.0,93,70,47,30.09,29.36,9,2,11,0.00
2013-10-23,43.0,33.0,26.0,32.4,28.2,24.4,98,84,52,30.15,29.41,3,0,10,0.00
2013-10-24,43.0,35.7,29.0,30.3,28.2,24.6,86,74,56,30.39,30.15,0,0,13,0.00
2013-10-25,50.0,40.2,26.0,34.0,30.0,24.3,96,70,49,30.45,29.95,14,0,29,0.00
2013-10-26,49.0,46.1,41.0,38.5,33.4,30.2,81,62,52,30.18,29.87,13,1,27,0.00
2013-10-27,55.0,41.2,30.0,35.0,31.6,27.4,97,71,42,30.16,29.96,0,0,16,0.00
2013-10-28,42.0,38.9,36.0,33.7,30.7,28.8,82,73,64,30.53,30.19,0,0,10,0.00
2013-10-29,53.0,40.1,32.0,43.6,34.9,26.6,96,82,68,30.54,30.24,0,0,8,0.00
2013-10-30,55.0,48.4,36.0,54.0,47.9,35.5,100,98,94,30.24,29.85,0,0,10,0.00
2013-10-31,62.0,55.4,46.0,62.0,55.4,46.0,100,100,100,29.84,29.43,0,0,15,1.20
2013-11-1,46.0,43.8,40.0,46.0,43.8,40.0,100,100,100,29.87,29.47,0,0,13,0.01
2013-11-2,43.0,39.8,33.0,42.0,39.2,32.7,100,98,91,30.25,29.87,0,0,0,0.00
2013-11-3,49.0,38.3,28.0,43.4,34.8,28.0,100,88,65,30.38,30.26,0,0,16,0.00
2013-11-4,52.0,47.5,43.0,47.1,41.9,38.2,93,81,68,30.28,30.12,5,0,22,0.00
2013-11-5,56.0,49.1,39.0,56.0,47.9,38.7,100,96,85,30.35,29.95,0,0,12,1.07
2013-11-6,59.0,43.1,29.0,59.0,40.1,25.1,100,89,67,30.26,29.84,0,0,14,0.19
2013-11-7,42.0,32.7,24.0,34.0,28.7,23.3,100,86,66,30.34,30.26,0,0,0,0.00
2013-11-8,44.0,35.7,24.0,37.9,31.7,24.0,100,86,71,30.38,29.90,0,0,0,0.00
2013-11-9,51.0,45.5,40.0,42.4,37.0,27.6,85,72,60,30.18,29.83,14,0,29,0.00
2013-11-10,48.0,42.4,39.0,34.2,31.2,29.0,73,65,51,30.41,30.20,8,0,21,0.00
2013-11-11,43.0,31.2,22.0,34.6,23.7,13.0,99,74,58,30.69,30.16,0,0,10,0.02
2013-11-12,30.0,22.4,16.0,16.3,13.5,11.7,84,69,49,30.82,30.65,0,0,1,0.00
2013-11-13,43.0,31.4,18.0,24.7,18.5,13.0,86,61,43,30.64,30.14,11,1,28,0.00
2013-11-14,51.0,42.6,34.0,33.3,27.9,20.1,72,56,44,30.13,29.27,12,3,19,0.00
2013-11-15,57.0,43.5,28.0,39.1,34.3,27.0,97,72,47,30.09,29.28,8,2,11,0.00
2013-11-16,62.0,49.2,36.0,58.7,44.9,33.8,100,86,69,30.03,28.83,19,5,33,1.52
2013-11-17,62.0,50.5,40.0,57.7,47.3,32.0,100,89,70,29.85,28.65,22,6,42,0.35
2013-11-18,40.0,33.8,25.0,32.1,25.2,21.1,86,71,63,30.39,29.10,24,8,39,0.00
2013-11-19,42.0,31.5,19.0,30.7,25.3,18.5,99,79,51,30.49,29.63,9,2,13,0.00
2013-11-20,42.0,37.9,33.0,36.6,32.0,28.6,100,80,60,30.34,29.52,16,4,22,0.00
2013-11-21,44.0,39.7,36.0,41.5,38.0,35.2,100,93,82,30.41,29.52,6,2,15,0.00
2013-11-22,37.0,31.7,25.0,34.2,24.1,13.6,100,76,46,30.60,29.74,14,4,19,0.00
2013-11-23,28.0,17.4,9.0,18.2,6.5,1.6,76,62,46,30.84,29.86,14,4,29,0.00
2013-11-24,28.0,18.0,5.0,9.3,5.4,2.1,91,61,33,30.82,29.63,20,5,27,0.00
2013-11-25,36.0,30.1,23.0,29.5,22.1,6.9,96,74,41,30.32,29.40,20,6,26,0.00
2013-11-26,35.0,24.5,13.0,28.5,14.5,4.8,86,66,48,30.38,29.43,15,4,26,0.00
2013-11-27,29.0,21.0,11.0,15.3,10.7,5.3,88,66,41,30.42,29.61,10,3,16,0.00
2013-11-28,31.0,25.2,16.0,18.5,15.1,10.4,86,66,52,30.63,29.56,9,2,16,0.00
2013-11-29,33.0,23.4,9.0,21.7,17.2,7.9,97,78,56,30.72,29.73,10,2,13,0.00
2013-11-30,48.0,36.9,28.0,31.1,27.5,21.7,84,69,49,30.41,29.43,10,2,14,0.00
2013-12-1,42.0,33.2,26.0,32.7,27.0,21.7,94,79,54,30.28,29.42,6,1,8,0.00
2013-12-2,42.0,31.8,19.0,36.2,28.9,18.3,99,89,73,30.12,29.20,9,1,14,0.11
2013-12-3,38.0,35.7,33.0,38.0,31.0,26.5,100,84,71,29.94,29.16,10,4,19,0.01
2013-12-4,51.0,38.7,34.0,51.0,32.0,24.1,100,79,42,29.93,28.86,21,4,28,0.00
2013-12-5,36.0,21.3,10.0,32.2,13.9,4.9,97,73,57,30.42,29.06,21,8,32,0.00
2013-12-6,15.0,8.8,3.0,5.2,2.4,-1.2,87,75,61,30.69,29.73,12,4,21,0.00
2013-12-7,13.0,5.2,-3.0,2.5,-1.8,-5.7,89,73,48,30.82,29.97,10,2,18,0.00
2013-12-8,16.0,11.3,2.0,14.3,6.9,-2.0,94,82,66,30.71,29.38,8,2,13,0.00
2013-12-9,16.0,9.5,-2.0,14.6,4.0,-6.9,96,79,56,30.32,29.34,23,5,29,0.00
2013-12-10,18.0,9.1,-4.0,11.8,2.7,-7.1,95,76,57,30.38,29.27,14,5,29,0.00
2013-12-11,14.0,4.0,-5.0,12.4,-3.1,-10.9,94,73,51,30.63,29.65,11,2,20,0.00
2013-12-12,22.0,13.2,-4.0,14.3,5.7,-9.2,85,72,61,30.59,29.57,8,3,14,0.00
2013-12-13,22.0,18.0,14.0,16.1,11.7,7.0,88,76,66,30.41,29.54,10,3,17,0.00
2013-12-14,24.0,19.3,15.0,20.4,16.5,10.5,97,89,79,30.40,29.34,11,3,18,0.00
2013-12-15,17.0,8.0,-3.0,14.1,0.3,-8.9,92,71,48,30.33,29.33,20,4,23,0.00
2013-12-16,17.0,6.2,-6.0,15.6,1.5,-10.8,96,81,63,30.34,29.38,8,2,14,0.03
2013-12-17,35.0,25.4,14.0,30.1,20.8,10.1,100,83,64,30.25,29.25,18,5,27,0.00
2013-12-18,37.0,22.3,7.0,26.4,14.5,3.7,90,73,48,30.28,29.12,18,3,22,0.00
2013-12-19,32.0,25.9,15.0,27.7,22.5,13.6,95,87,75,30.17,29.18,10,3,20,0.00
2013-12-20,25.0,22.6,19.0,23.8,21.4,17.3,98,95,93,30.12,29.25,10,2,21,0.00
2013-12-21,29.0,25.6,22.0,26.8,24.2,21.5,100,95,90,30.09,29.22,13,2,19,0.00
2013-12-22,27.0,24.6,19.0,25.8,23.6,19.0,100,96,91,30.31,29.19,10,2,17,0.09
2013-12-23,24.0,12.9,0.0,23.0,11.4,-1.5,100,94,86,30.61,29.53,10,2,15,0.00
2013-12-24,15.0,4.0,-13.0,8.4,0.3,-14.4,95,85,69,30.72,29.68,6,2,11,0.01
2013-12-25,25.0,18.1,9.0,23.8,16.4,7.3,98,93,86,30.46,29.48,9,3,16,0.04
2013-12-26,24.0,19.3,12.0,21.3,16.6,10.4,96,89,78,30.40,29.51,9,1,16,0.00
2013-12-27,39.0,24.2,5.0,32.4,20.6,4.1,97,87,71,30.42,29.36,13,3,18,0.00
2013-12-28,46.0,36.7,19.0,36.0,30.2,19.0,100,79,56,30.22,29.14,10,2,14,0.00
2013-12-29,40.0,18.0,-6.0,33.7,11.8,-11.6,97,77,62,30.47,29.12,16,5,25,0.00
2013-12-30,5.0,-3.2,-15.0,0.3,-9.9,-18.6,89,73,48,30.54,29.59,6,1,12,0.00
2013-12-31,8.0,3.4,-5.0,1.6,-2.6,-12.1,89,76,62,30.60,29.57,8,3,15,0.00
2014-1-1,11.0,4.1,-6.0,-0.4,-4.9,-11.8,77,66,50,30.63,29.74,11,2,13,0.00
2014-1-2,12.0,6.3,-12.0,3.1,-1.8,-15.7,85,69,49,30.65,29.71,9,2,13,0.00